Trail, Oregon
Current Conditions -  °F | °C
As of 9:53 AM on Wednesday 26 Nov 2014 (Local Time) from KMFR Reporting Station
Haze Haze  
Wind Chill: 46°   Ceiling: 600
Heat Index: 46°   Visibility: 2mi
Dew Point: 44°   Wind: 0mph
Humidity: 93%   Direction: NA
Pressure: 30.29"   Gusts: NA
Location:  42.65°N, 122.81°W
Report Text: KMFR 261753Z 00000KT 2SM BR OVC006 08/07 A3029 RMK AO2 CIG 003V008 SLP261 T00780067 10078 20067 58003
Loading
Personal Weather Stations






























Interactive Weather Map New forecast layout! Learn more

10-Day Weather Forecast

Advertisements
Track Severe Weather on mobile